sensor_id;sensor_type;location;lat;lon;timestamp;temperature;humidity
15574;DHT22;7888;46.748;8.102;2023-05-23T00:00:41;21.30;48.10
15574;DHT22;7888;46.748;8.102;2023-05-23T00:03:07;21.30;48.20
15574;DHT22;7888;46.748;8.102;2023-05-23T00:05:33;21.30;48.20
15574;DHT22;7888;46.748;8.102;2023-05-23T00:08:02;21.20;48.20
15574;DHT22;7888;46.748;8.102;2023-05-23T00:10:28;21.20;48.60
15574;DHT22;7888;46.748;8.102;2023-05-23T00:12:54;21.20;48.40
15574;DHT22;7888;46.748;8.102;2023-05-23T00:15:22;21.10;48.30
15574;DHT22;7888;46.748;8.102;2023-05-23T00:17:48;21.10;48.40
15574;DHT22;7888;46.748;8.102;2023-05-23T00:20:15;21.10;48.50
15574;DHT22;7888;46.748;8.102;2023-05-23T00:22:41;21.10;48.50
15574;DHT22;7888;46.748;8.102;2023-05-23T00:25:10;21.10;48.40
15574;DHT22;7888;46.748;8.102;2023-05-23T00:27:36;21.00;48.60
15574;DHT22;7888;46.748;8.102;2023-05-23T00:30:02;21.00;48.60
15574;DHT22;7888;46.748;8.102;2023-05-23T00:32:28;21.00;48.60
15574;DHT22;7888;46.748;8.102;2023-05-23T00:34:54;20.90;48.70
15574;DHT22;7888;46.748;8.102;2023-05-23T00:37:21;20.90;48.60
15574;DHT22;7888;46.748;8.102;2023-05-23T00:39:47;20.90;49.00
15574;DHT22;7888;46.748;8.102;2023-05-23T00:42:13;20.80;49.10
15574;DHT22;7888;46.748;8.102;2023-05-23T00:44:39;20.80;49.10
15574;DHT22;7888;46.748;8.102;2023-05-23T00:47:06;20.70;49.10
15574;DHT22;7888;46.748;8.102;2023-05-23T00:49:33;20.70;49.30
15574;DHT22;7888;46.748;8.102;2023-05-23T00:51:59;20.70;49.20
15574;DHT22;7888;46.748;8.102;2023-05-23T00:54:28;20.60;49.30
15574;DHT22;7888;46.748;8.102;2023-05-23T00:56:55;20.60;49.50
15574;DHT22;7888;46.748;8.102;2023-05-23T00:59:24;20.50;49.40
15574;DHT22;7888;46.748;8.102;2023-05-23T01:01:51;20.50;49.50
15574;DHT22;7888;46.748;8.102;2023-05-23T01:04:19;20.50;49.50
15574;DHT22;7888;46.748;8.102;2023-05-23T01:06:45;20.40;49.30
15574;DHT22;7888;46.748;8.102;2023-05-23T01:09:16;20.40;49.50
15574;DHT22;7888;46.748;8.102;2023-05-23T01:15:18;20.30;49.80
15574;DHT22;7888;46.748;8.102;2023-05-23T01:18:06;20.30;50.00
15574;DHT22;7888;46.748;8.102;2023-05-23T01:20:40;20.20;49.70
15574;DHT22;7888;46.748;8.102;2023-05-23T01:26:12;20.20;49.90
15574;DHT22;7888;46.748;8.102;2023-05-23T01:28:53;20.10;49.90
15574;DHT22;7888;46.748;8.102;2023-05-23T01:31:23;20.10;49.80
15574;DHT22;7888;46.748;8.102;2023-05-23T01:33:52;20.10;49.80
15574;DHT22;7888;46.748;8.102;2023-05-23T01:36:19;20.00;49.60
15574;DHT22;7888;46.748;8.102;2023-05-23T01:38:46;20.00;49.60
15574;DHT22;7888;46.748;8.102;2023-05-23T01:41:12;20.00;49.80
15574;DHT22;7888;46.748;8.102;2023-05-23T01:43:38;20.00;49.90
15574;DHT22;7888;46.748;8.102;2023-05-23T01:46:04;19.90;49.90
15574;DHT22;7888;46.748;8.102;2023-05-23T01:48:32;19.90;50.10
15574;DHT22;7888;46.748;8.102;2023-05-23T01:51:00;19.90;50.10
15574;DHT22;7888;46.748;8.102;2023-05-23T01:53:27;19.90;50.10
15574;DHT22;7888;46.748;8.102;2023-05-23T01:55:55;19.90;50.30
15574;DHT22;7888;46.748;8.102;2023-05-23T01:58:21;19.80;50.40
15574;DHT22;7888;46.748;8.102;2023-05-23T02:00:47;19.80;50.30
15574;DHT22;7888;46.748;8.102;2023-05-23T02:03:13;19.80;50.30
15574;DHT22;7888;46.748;8.102;2023-05-23T02:05:39;19.80;50.30
15574;DHT22;7888;46.748;8.102;2023-05-23T02:08:04;19.80;50.40
15574;DHT22;7888;46.748;8.102;2023-05-23T02:10:30;19.80;50.50
15574;DHT22;7888;46.748;8.102;2023-05-23T02:12:56;19.70;50.40
15574;DHT22;7888;46.748;8.102;2023-05-23T02:15:22;19.70;50.60
15574;DHT22;7888;46.748;8.102;2023-05-23T02:17:47;19.60;50.60
15574;DHT22;7888;46.748;8.102;2023-05-23T02:20:14;19.70;50.60
15574;DHT22;7888;46.748;8.102;2023-05-23T02:22:39;19.60;50.60
15574;DHT22;7888;46.748;8.102;2023-05-23T02:25:06;19.60;50.60
15574;DHT22;7888;46.748;8.102;2023-05-23T02:27:32;19.60;50.70
15574;DHT22;7888;46.748;8.102;2023-05-23T02:29:58;19.60;50.90
15574;DHT22;7888;46.748;8.102;2023-05-23T02:32:23;19.50;50.90
15574;DHT22;7888;46.748;8.102;2023-05-23T02:34:50;19.50;51.00
15574;DHT22;7888;46.748;8.102;2023-05-23T02:37:16;19.50;51.20
15574;DHT22;7888;46.748;8.102;2023-05-23T02:39:42;19.50;51.30
15574;DHT22;7888;46.748;8.102;2023-05-23T02:42:08;19.50;51.20
15574;DHT22;7888;46.748;8.102;2023-05-23T02:44:34;19.50;51.30
15574;DHT22;7888;46.748;8.102;2023-05-23T02:47:00;19.50;51.40
15574;DHT22;7888;46.748;8.102;2023-05-23T02:49:26;19.40;51.50
15574;DHT22;7888;46.748;8.102;2023-05-23T02:51:51;19.40;51.40
15574;DHT22;7888;46.748;8.102;2023-05-23T02:54:17;19.30;51.40
15574;DHT22;7888;46.748;8.102;2023-05-23T02:56:44;19.30;51.40
15574;DHT22;7888;46.748;8.102;2023-05-23T02:59:11;19.30;51.50
15574;DHT22;7888;46.748;8.102;2023-05-23T03:01:37;19.30;51.50
15574;DHT22;7888;46.748;8.102;2023-05-23T03:04:03;19.30;51.40
15574;DHT22;7888;46.748;8.102;2023-05-23T03:06:28;19.30;51.40
15574;DHT22;7888;46.748;8.102;2023-05-23T03:08:56;19.20;51.30
15574;DHT22;7888;46.748;8.102;2023-05-23T03:11:22;19.20;51.30
15574;DHT22;7888;46.748;8.102;2023-05-23T03:13:48;19.20;51.40
15574;DHT22;7888;46.748;8.102;2023-05-23T03:16:13;19.20;51.30
15574;DHT22;7888;46.748;8.102;2023-05-23T03:18:39;19.20;51.30
15574;DHT22;7888;46.748;8.102;2023-05-23T03:21:06;19.10;51.30
15574;DHT22;7888;46.748;8.102;2023-05-23T03:23:32;19.10;51.30
15574;DHT22;7888;46.748;8.102;2023-05-23T03:25:58;19.10;51.30
15574;DHT22;7888;46.748;8.102;2023-05-23T03:28:24;19.10;51.50
15574;DHT22;7888;46.748;8.102;2023-05-23T03:30:50;19.00;51.60
15574;DHT22;7888;46.748;8.102;2023-05-23T03:33:15;19.00;51.60
15574;DHT22;7888;46.748;8.102;2023-05-23T03:35:41;19.00;51.60
15574;DHT22;7888;46.748;8.102;2023-05-23T03:38:08;18.90;51.70
15574;DHT22;7888;46.748;8.102;2023-05-23T03:40:34;18.90;51.70
15574;DHT22;7888;46.748;8.102;2023-05-23T03:43:04;18.90;51.80
15574;DHT22;7888;46.748;8.102;2023-05-23T03:45:31;18.90;51.90
15574;DHT22;7888;46.748;8.102;2023-05-23T03:47:57;18.90;51.80
15574;DHT22;7888;46.748;8.102;2023-05-23T03:50:24;18.80;51.80
15574;DHT22;7888;46.748;8.102;2023-05-23T03:52:51;18.80;51.70
15574;DHT22;7888;46.748;8.102;2023-05-23T03:55:17;18.80;51.70
15574;DHT22;7888;46.748;8.102;2023-05-23T03:57:47;18.80;51.90
15574;DHT22;7888;46.748;8.102;2023-05-23T04:00:14;18.70;51.90
15574;DHT22;7888;46.748;8.102;2023-05-23T04:02:39;18.70;51.90
15574;DHT22;7888;46.748;8.102;2023-05-23T04:05:06;18.70;52.00
15574;DHT22;7888;46.748;8.102;2023-05-23T04:07:32;18.70;52.00
15574;DHT22;7888;46.748;8.102;2023-05-23T04:10:01;18.70;52.00
15574;DHT22;7888;46.748;8.102;2023-05-23T04:12:28;18.70;51.90
15574;DHT22;7888;46.748;8.102;2023-05-23T04:14:57;18.70;51.90
15574;DHT22;7888;46.748;8.102;2023-05-23T04:17:23;18.70;52.10
15574;DHT22;7888;46.748;8.102;2023-05-23T04:19:50;18.60;51.80
15574;DHT22;7888;46.748;8.102;2023-05-23T04:22:16;18.70;52.10
15574;DHT22;7888;46.748;8.102;2023-05-23T04:24:42;18.60;52.20
15574;DHT22;7888;46.748;8.102;2023-05-23T04:27:08;18.60;52.40
15574;DHT22;7888;46.748;8.102;2023-05-23T04:29:34;18.60;52.40
15574;DHT22;7888;46.748;8.102;2023-05-23T04:32:03;18.60;52.40
15574;DHT22;7888;46.748;8.102;2023-05-23T04:34:33;18.60;52.50
15574;DHT22;7888;46.748;8.102;2023-05-23T04:37:00;18.60;52.30
15574;DHT22;7888;46.748;8.102;2023-05-23T04:39:29;18.60;52.40
15574;DHT22;7888;46.748;8.102;2023-05-23T04:41:55;18.60;52.40
15574;DHT22;7888;46.748;8.102;2023-05-23T04:44:22;18.60;52.40
15574;DHT22;7888;46.748;8.102;2023-05-23T04:46:48;18.60;52.40
15574;DHT22;7888;46.748;8.102;2023-05-23T04:49:15;18.60;52.40
15574;DHT22;7888;46.748;8.102;2023-05-23T04:51:41;18.60;52.40
15574;DHT22;7888;46.748;8.102;2023-05-23T04:54:07;18.60;52.50
15574;DHT22;7888;46.748;8.102;2023-05-23T04:56:33;18.60;52.70
15574;DHT22;7888;46.748;8.102;2023-05-23T04:58:59;18.60;52.70
15574;DHT22;7888;46.748;8.102;2023-05-23T05:01:25;18.60;52.70
15574;DHT22;7888;46.748;8.102;2023-05-23T05:03:52;18.70;52.90
15574;DHT22;7888;46.748;8.102;2023-05-23T05:06:19;18.70;53.00
15574;DHT22;7888;46.748;8.102;2023-05-23T05:08:46;18.70;53.10
15574;DHT22;7888;46.748;8.102;2023-05-23T05:11:11;18.70;53.10
15574;DHT22;7888;46.748;8.102;2023-05-23T05:13:37;18.80;53.20
15574;DHT22;7888;46.748;8.102;2023-05-23T05:16:03;18.80;53.10
15574;DHT22;7888;46.748;8.102;2023-05-23T05:18:29;18.80;52.90
15574;DHT22;7888;46.748;8.102;2023-05-23T05:20:55;18.80;53.00
15574;DHT22;7888;46.748;8.102;2023-05-23T05:23:24;18.80;53.10
15574;DHT22;7888;46.748;8.102;2023-05-23T05:25:53;18.80;53.50
15574;DHT22;7888;46.748;8.102;2023-05-23T05:28:20;18.90;53.50
15574;DHT22;7888;46.748;8.102;2023-05-23T05:30:46;18.90;53.60
15574;DHT22;7888;46.748;8.102;2023-05-23T05:33:13;19.00;53.80
15574;DHT22;7888;46.748;8.102;2023-05-23T05:35:38;19.00;53.80
15574;DHT22;7888;46.748;8.102;2023-05-23T05:38:04;19.00;53.50
15574;DHT22;7888;46.748;8.102;2023-05-23T05:40:31;19.00;53.40
15574;DHT22;7888;46.748;8.102;2023-05-23T05:42:57;19.10;53.40
15574;DHT22;7888;46.748;8.102;2023-05-23T05:45:23;19.10;53.60
15574;DHT22;7888;46.748;8.102;2023-05-23T05:47:49;19.10;53.70
15574;DHT22;7888;46.748;8.102;2023-05-23T05:50:14;19.20;53.80
15574;DHT22;7888;46.748;8.102;2023-05-23T05:52:40;19.20;53.70
15574;DHT22;7888;46.748;8.102;2023-05-23T05:55:08;19.30;53.50
15574;DHT22;7888;46.748;8.102;2023-05-23T05:57:38;19.20;53.30
15574;DHT22;7888;46.748;8.102;2023-05-23T06:00:09;19.30;53.20
15574;DHT22;7888;46.748;8.102;2023-05-23T06:02:42;19.30;53.40
15574;DHT22;7888;46.748;8.102;2023-05-23T06:05:12;19.30;53.50
15574;DHT22;7888;46.748;8.102;2023-05-23T06:07:43;19.30;53.70
15574;DHT22;7888;46.748;8.102;2023-05-23T06:10:10;19.40;53.90
15574;DHT22;7888;46.748;8.102;2023-05-23T06:12:39;19.40;53.60
15574;DHT22;7888;46.748;8.102;2023-05-23T06:15:05;19.40;53.40
15574;DHT22;7888;46.748;8.102;2023-05-23T06:17:32;19.50;53.40
15574;DHT22;7888;46.748;8.102;2023-05-23T06:19:58;19.50;53.40
15574;DHT22;7888;46.748;8.102;2023-05-23T06:22:23;19.50;53.20
15574;DHT22;7888;46.748;8.102;2023-05-23T06:24:49;19.50;53.20
15574;DHT22;7888;46.748;8.102;2023-05-23T06:27:15;19.50;53.00
15574;DHT22;7888;46.748;8.102;2023-05-23T06:29:41;19.50;52.90
15574;DHT22;7888;46.748;8.102;2023-05-23T06:32:06;19.60;52.70
15574;DHT22;7888;46.748;8.102;2023-05-23T06:34:32;19.60;52.70
15574;DHT22;7888;46.748;8.102;2023-05-23T06:36:58;19.60;52.60
15574;DHT22;7888;46.748;8.102;2023-05-23T06:39:24;19.70;52.20
15574;DHT22;7888;46.748;8.102;2023-05-23T06:41:49;19.70;52.20
15574;DHT22;7888;46.748;8.102;2023-05-23T06:44:15;19.80;52.30
15574;DHT22;7888;46.748;8.102;2023-05-23T06:46:45;19.90;52.20
15574;DHT22;7888;46.748;8.102;2023-05-23T06:49:11;19.90;52.30
15574;DHT22;7888;46.748;8.102;2023-05-23T06:51:37;20.00;52.20
15574;DHT22;7888;46.748;8.102;2023-05-23T06:54:03;20.10;52.40
15574;DHT22;7888;46.748;8.102;2023-05-23T06:56:30;20.20;52.50
15574;DHT22;7888;46.748;8.102;2023-05-23T06:58:55;20.30;52.60
15574;DHT22;7888;46.748;8.102;2023-05-23T07:01:21;20.50;52.80
15574;DHT22;7888;46.748;8.102;2023-05-23T07:03:47;20.60;52.70
15574;DHT22;7888;46.748;8.102;2023-05-23T07:06:13;20.70;52.60
15574;DHT22;7888;46.748;8.102;2023-05-23T07:08:38;20.90;52.70
15574;DHT22;7888;46.748;8.102;2023-05-23T07:11:05;21.10;52.60
15574;DHT22;7888;46.748;8.102;2023-05-23T07:13:31;21.20;52.30
15574;DHT22;7888;46.748;8.102;2023-05-23T07:15:57;21.30;52.20
15574;DHT22;7888;46.748;8.102;2023-05-23T07:18:23;21.50;52.00
15574;DHT22;7888;46.748;8.102;2023-05-23T07:20:49;21.70;51.70
15574;DHT22;7888;46.748;8.102;2023-05-23T07:23:15;21.70;51.50
15574;DHT22;7888;46.748;8.102;2023-05-23T07:25:41;21.80;51.30
15574;DHT22;7888;46.748;8.102;2023-05-23T07:28:08;21.90;51.00
15574;DHT22;7888;46.748;8.102;2023-05-23T07:30:34;21.90;51.10
15574;DHT22;7888;46.748;8.102;2023-05-23T07:33:00;22.00;50.90
15574;DHT22;7888;46.748;8.102;2023-05-23T07:35:26;22.10;50.60
15574;DHT22;7888;46.748;8.102;2023-05-23T07:37:52;22.20;50.50
15574;DHT22;7888;46.748;8.102;2023-05-23T07:40:19;22.30;50.30
15574;DHT22;7888;46.748;8.102;2023-05-23T07:42:45;22.40;50.00
15574;DHT22;7888;46.748;8.102;2023-05-23T07:45:11;22.50;49.60
15574;DHT22;7888;46.748;8.102;2023-05-23T07:47:37;22.70;50.00
15574;DHT22;7888;46.748;8.102;2023-05-23T07:50:04;22.80;49.70
15574;DHT22;7888;46.748;8.102;2023-05-23T07:52:31;22.90;49.60
15574;DHT22;7888;46.748;8.102;2023-05-23T07:54:58;23.10;49.30
15574;DHT22;7888;46.748;8.102;2023-05-23T07:57:24;23.30;49.20
15574;DHT22;7888;46.748;8.102;2023-05-23T07:59:51;23.40;48.90
15574;DHT22;7888;46.748;8.102;2023-05-23T08:02:18;23.50;48.60
15574;DHT22;7888;46.748;8.102;2023-05-23T08:04:45;23.60;48.20
15574;DHT22;7888;46.748;8.102;2023-05-23T08:07:12;23.70;48.00
15574;DHT22;7888;46.748;8.102;2023-05-23T08:09:39;23.80;47.70
15574;DHT22;7888;46.748;8.102;2023-05-23T08:12:05;23.90;47.60
15574;DHT22;7888;46.748;8.102;2023-05-23T08:14:32;24.00;47.80
15574;DHT22;7888;46.748;8.102;2023-05-23T08:16:58;24.10;47.80
15574;DHT22;7888;46.748;8.102;2023-05-23T08:19:24;24.20;47.70
15574;DHT22;7888;46.748;8.102;2023-05-23T08:21:50;24.30;47.60
15574;DHT22;7888;46.748;8.102;2023-05-23T08:24:18;24.40;47.60
15574;DHT22;7888;46.748;8.102;2023-05-23T08:26:44;24.50;47.40
15574;DHT22;7888;46.748;8.102;2023-05-23T08:29:10;24.70;47.30
15574;DHT22;7888;46.748;8.102;2023-05-23T08:31:37;24.80;47.00
15574;DHT22;7888;46.748;8.102;2023-05-23T08:34:02;24.90;46.80
15574;DHT22;7888;46.748;8.102;2023-05-23T08:36:29;25.00;46.80
15574;DHT22;7888;46.748;8.102;2023-05-23T08:38:58;25.10;46.70
15574;DHT22;7888;46.748;8.102;2023-05-23T08:41:25;25.20;46.80
15574;DHT22;7888;46.748;8.102;2023-05-23T08:43:53;25.30;46.50
15574;DHT22;7888;46.748;8.102;2023-05-23T08:46:21;25.40;46.50
15574;DHT22;7888;46.748;8.102;2023-05-23T08:48:50;25.50;46.70
15574;DHT22;7888;46.748;8.102;2023-05-23T08:51:25;25.70;46.50
15574;DHT22;7888;46.748;8.102;2023-05-23T08:53:53;25.80;45.80
15574;DHT22;7888;46.748;8.102;2023-05-23T08:56:22;25.90;45.70
15574;DHT22;7888;46.748;8.102;2023-05-23T08:58:49;26.00;45.70
15574;DHT22;7888;46.748;8.102;2023-05-23T09:01:17;26.10;45.80
15574;DHT22;7888;46.748;8.102;2023-05-23T09:03:45;26.20;45.70
15574;DHT22;7888;46.748;8.102;2023-05-23T09:06:12;26.30;45.20
15574;DHT22;7888;46.748;8.102;2023-05-23T09:08:38;26.40;44.90
15574;DHT22;7888;46.748;8.102;2023-05-23T09:11:05;26.50;44.90
15574;DHT22;7888;46.748;8.102;2023-05-23T09:13:32;26.50;44.70
15574;DHT22;7888;46.748;8.102;2023-05-23T09:18:33;26.70;44.00
15574;DHT22;7888;46.748;8.102;2023-05-23T09:21:01;26.70;43.00
15574;DHT22;7888;46.748;8.102;2023-05-23T09:23:31;26.80;43.60
15574;DHT22;7888;46.748;8.102;2023-05-23T09:26:05;26.80;43.10
15574;DHT22;7888;46.748;8.102;2023-05-23T09:28:33;26.80;42.80
15574;DHT22;7888;46.748;8.102;2023-05-23T09:31:00;26.90;43.20
15574;DHT22;7888;46.748;8.102;2023-05-23T09:33:38;26.90;43.10
15574;DHT22;7888;46.748;8.102;2023-05-23T09:36:07;26.90;42.70
15574;DHT22;7888;46.748;8.102;2023-05-23T09:38:38;26.90;43.00
15574;DHT22;7888;46.748;8.102;2023-05-23T09:41:09;26.90;42.60
15574;DHT22;7888;46.748;8.102;2023-05-23T09:43:39;26.90;42.70
15574;DHT22;7888;46.748;8.102;2023-05-23T09:46:14;26.90;42.80
15574;DHT22;7888;46.748;8.102;2023-05-23T09:48:48;26.90;42.70
15574;DHT22;7888;46.748;8.102;2023-05-23T09:51:19;26.90;42.60
15574;DHT22;7888;46.748;8.102;2023-05-23T09:53:46;26.90;43.10
15574;DHT22;7888;46.748;8.102;2023-05-23T09:56:12;27.00;43.00
15574;DHT22;7888;46.748;8.102;2023-05-23T09:58:49;27.00;43.30
15574;DHT22;7888;46.748;8.102;2023-05-23T10:01:16;27.10;43.00
15574;DHT22;7888;46.748;8.102;2023-05-23T10:03:48;27.20;43.10
15574;DHT22;7888;46.748;8.102;2023-05-23T10:09:05;27.20;42.70
15574;DHT22;7888;46.748;8.102;2023-05-23T10:14:06;27.30;42.50
15574;DHT22;7888;46.748;8.102;2023-05-23T10:16:52;27.20;42.40
15574;DHT22;7888;46.748;8.102;2023-05-23T10:19:26;27.20;42.40
15574;DHT22;7888;46.748;8.102;2023-05-23T10:22:00;27.20;43.20
15574;DHT22;7888;46.748;8.102;2023-05-23T10:24:32;27.30;42.90
15574;DHT22;7888;46.748;8.102;2023-05-23T10:26:59;27.30;42.70
15574;DHT22;7888;46.748;8.102;2023-05-23T10:29:26;27.30;42.60
15574;DHT22;7888;46.748;8.102;2023-05-23T10:31:53;27.30;42.80
15574;DHT22;7888;46.748;8.102;2023-05-23T10:40:40;27.40;42.20
15574;DHT22;7888;46.748;8.102;2023-05-23T10:46:57;27.40;42.10
15574;DHT22;7888;46.748;8.102;2023-05-23T10:49:40;27.40;42.30
15574;DHT22;7888;46.748;8.102;2023-05-23T10:52:17;27.50;42.90
15574;DHT22;7888;46.748;8.102;2023-05-23T10:54:49;27.50;42.50
15574;DHT22;7888;46.748;8.102;2023-05-23T10:57:21;27.60;42.60
15574;DHT22;7888;46.748;8.102;2023-05-23T10:59:52;27.70;42.80
15574;DHT22;7888;46.748;8.102;2023-05-23T11:02:24;27.70;42.70
15574;DHT22;7888;46.748;8.102;2023-05-23T11:05:18;27.80;42.40
15574;DHT22;7888;46.748;8.102;2023-05-23T11:08:13;27.90;41.80
15574;DHT22;7888;46.748;8.102;2023-05-23T11:13:25;27.90;42.00
15574;DHT22;7888;46.748;8.102;2023-05-23T11:16:24;27.90;42.10
15574;DHT22;7888;46.748;8.102;2023-05-23T11:18:51;27.90;41.60
15574;DHT22;7888;46.748;8.102;2023-05-23T11:21:22;27.90;42.00
15574;DHT22;7888;46.748;8.102;2023-05-23T11:23:53;28.00;42.50
15574;DHT22;7888;46.748;8.102;2023-05-23T11:26:29;28.10;42.90
15574;DHT22;7888;46.748;8.102;2023-05-23T11:28:57;28.10;42.90
15574;DHT22;7888;46.748;8.102;2023-05-23T11:31:23;28.20;43.40
15574;DHT22;7888;46.748;8.102;2023-05-23T11:33:52;28.30;42.70
15574;DHT22;7888;46.748;8.102;2023-05-23T11:36:23;28.30;42.80
15574;DHT22;7888;46.748;8.102;2023-05-23T11:38:52;28.30;42.80
15574;DHT22;7888;46.748;8.102;2023-05-23T11:41:18;28.40;42.50
15574;DHT22;7888;46.748;8.102;2023-05-23T11:43:50;28.40;42.20
15574;DHT22;7888;46.748;8.102;2023-05-23T11:46:17;28.50;41.70
15574;DHT22;7888;46.748;8.102;2023-05-23T11:48:46;28.50;41.80
15574;DHT22;7888;46.748;8.102;2023-05-23T11:51:14;28.60;41.60
15574;DHT22;7888;46.748;8.102;2023-05-23T11:53:40;28.60;41.80
15574;DHT22;7888;46.748;8.102;2023-05-23T11:56:06;28.60;41.90
15574;DHT22;7888;46.748;8.102;2023-05-23T11:58:34;28.60;42.10
15574;DHT22;7888;46.748;8.102;2023-05-23T12:01:06;28.60;42.30
15574;DHT22;7888;46.748;8.102;2023-05-23T12:03:44;28.60;41.50
15574;DHT22;7888;46.748;8.102;2023-05-23T12:06:14;28.60;41.70
15574;DHT22;7888;46.748;8.102;2023-05-23T12:08:41;28.50;41.50
15574;DHT22;7888;46.748;8.102;2023-05-23T12:11:06;28.50;41.70
15574;DHT22;7888;46.748;8.102;2023-05-23T12:13:32;28.50;42.00
15574;DHT22;7888;46.748;8.102;2023-05-23T12:16:00;28.50;42.30
15574;DHT22;7888;46.748;8.102;2023-05-23T12:18:29;28.50;43.30
15574;DHT22;7888;46.748;8.102;2023-05-23T12:21:00;28.50;43.60
15574;DHT22;7888;46.748;8.102;2023-05-23T12:23:28;28.60;44.00
15574;DHT22;7888;46.748;8.102;2023-05-23T12:25:55;28.70;43.80
15574;DHT22;7888;46.748;8.102;2023-05-23T12:28:34;28.70;43.20
15574;DHT22;7888;46.748;8.102;2023-05-23T12:31:17;28.80;43.00
15574;DHT22;7888;46.748;8.102;2023-05-23T12:33:46;28.90;43.00
15574;DHT22;7888;46.748;8.102;2023-05-23T12:36:14;29.00;42.90
15574;DHT22;7888;46.748;8.102;2023-05-23T12:38:41;29.00;42.90
15574;DHT22;7888;46.748;8.102;2023-05-23T12:41:19;29.10;42.60
15574;DHT22;7888;46.748;8.102;2023-05-23T12:43:53;29.10;41.80
15574;DHT22;7888;46.748;8.102;2023-05-23T12:46:22;29.20;41.50
15574;DHT22;7888;46.748;8.102;2023-05-23T12:48:49;29.20;42.20
15574;DHT22;7888;46.748;8.102;2023-05-23T12:51:15;29.20;41.50
15574;DHT22;7888;46.748;8.102;2023-05-23T12:53:42;29.20;41.70
15574;DHT22;7888;46.748;8.102;2023-05-23T12:56:08;29.20;41.80
15574;DHT22;7888;46.748;8.102;2023-05-23T12:58:34;29.20;41.60
15574;DHT22;7888;46.748;8.102;2023-05-23T13:01:00;29.20;41.30
15574;DHT22;7888;46.748;8.102;2023-05-23T13:03:28;29.20;41.00
15574;DHT22;7888;46.748;8.102;2023-05-23T13:05:58;29.10;41.20
15574;DHT22;7888;46.748;8.102;2023-05-23T13:08:25;29.10;41.10
15574;DHT22;7888;46.748;8.102;2023-05-23T13:10:54;29.10;41.00
15574;DHT22;7888;46.748;8.102;2023-05-23T13:13:20;29.00;40.90
15574;DHT22;7888;46.748;8.102;2023-05-23T13:15:47;28.90;41.10
15574;DHT22;7888;46.748;8.102;2023-05-23T13:18:13;28.80;41.00
15574;DHT22;7888;46.748;8.102;2023-05-23T13:20:39;28.70;41.00
15574;DHT22;7888;46.748;8.102;2023-05-23T13:23:06;28.60;41.10
15574;DHT22;7888;46.748;8.102;2023-05-23T13:25:33;28.50;41.30
15574;DHT22;7888;46.748;8.102;2023-05-23T13:28:00;28.40;41.60
15574;DHT22;7888;46.748;8.102;2023-05-23T13:30:27;28.30;41.80
15574;DHT22;7888;46.748;8.102;2023-05-23T13:32:53;28.30;42.00
15574;DHT22;7888;46.748;8.102;2023-05-23T13:35:19;28.20;42.00
15574;DHT22;7888;46.748;8.102;2023-05-23T13:37:45;28.20;41.80
15574;DHT22;7888;46.748;8.102;2023-05-23T13:40:15;28.10;41.90
15574;DHT22;7888;46.748;8.102;2023-05-23T13:42:47;28.10;41.70
15574;DHT22;7888;46.748;8.102;2023-05-23T13:45:18;28.00;41.40
15574;DHT22;7888;46.748;8.102;2023-05-23T13:47:44;27.90;41.60
15574;DHT22;7888;46.748;8.102;2023-05-23T13:50:10;27.80;41.80
15574;DHT22;7888;46.748;8.102;2023-05-23T13:52:36;27.80;42.10
15574;DHT22;7888;46.748;8.102;2023-05-23T13:55:04;27.80;42.20
15574;DHT22;7888;46.748;8.102;2023-05-23T13:57:30;27.90;42.50
15574;DHT22;7888;46.748;8.102;2023-05-23T13:59:56;27.90;42.60
15574;DHT22;7888;46.748;8.102;2023-05-23T14:02:22;28.10;42.60
15574;DHT22;7888;46.748;8.102;2023-05-23T14:04:48;28.20;42.60
15574;DHT22;7888;46.748;8.102;2023-05-23T14:07:17;28.30;42.10
15574;DHT22;7888;46.748;8.102;2023-05-23T14:09:43;28.40;42.10
15574;DHT22;7888;46.748;8.102;2023-05-23T14:12:09;28.60;41.70
15574;DHT22;7888;46.748;8.102;2023-05-23T14:14:35;28.70;41.20
15574;DHT22;7888;46.748;8.102;2023-05-23T14:17:01;28.80;41.10
15574;DHT22;7888;46.748;8.102;2023-05-23T14:19:27;28.90;41.20
15574;DHT22;7888;46.748;8.102;2023-05-23T14:21:53;29.00;40.90
15574;DHT22;7888;46.748;8.102;2023-05-23T14:24:19;29.10;40.90
15574;DHT22;7888;46.748;8.102;2023-05-23T14:26:46;29.20;40.60
15574;DHT22;7888;46.748;8.102;2023-05-23T14:29:11;29.20;40.40
15574;DHT22;7888;46.748;8.102;2023-05-23T14:31:37;29.20;40.20
15574;DHT22;7888;46.748;8.102;2023-05-23T14:34:03;29.20;40.20
15574;DHT22;7888;46.748;8.102;2023-05-23T14:36:29;29.20;39.80
15574;DHT22;7888;46.748;8.102;2023-05-23T14:38:56;29.10;39.50
15574;DHT22;7888;46.748;8.102;2023-05-23T14:41:21;29.10;39.70
15574;DHT22;7888;46.748;8.102;2023-05-23T14:43:47;29.00;39.90
15574;DHT22;7888;46.748;8.102;2023-05-23T14:46:13;29.00;40.20
15574;DHT22;7888;46.748;8.102;2023-05-23T14:48:40;29.00;39.80
15574;DHT22;7888;46.748;8.102;2023-05-23T14:51:07;28.90;39.60
15574;DHT22;7888;46.748;8.102;2023-05-23T14:53:32;28.90;39.40
15574;DHT22;7888;46.748;8.102;2023-05-23T14:55:58;28.90;39.40
15574;DHT22;7888;46.748;8.102;2023-05-23T14:58:24;28.80;39.20
15574;DHT22;7888;46.748;8.102;2023-05-23T15:00:51;28.70;39.20
15574;DHT22;7888;46.748;8.102;2023-05-23T15:03:17;28.60;39.00
15574;DHT22;7888;46.748;8.102;2023-05-23T15:05:43;28.50;39.30
15574;DHT22;7888;46.748;8.102;2023-05-23T15:08:10;28.40;39.40
15574;DHT22;7888;46.748;8.102;2023-05-23T15:10:36;28.30;39.50
15574;DHT22;7888;46.748;8.102;2023-05-23T15:13:02;28.20;39.60
15574;DHT22;7888;46.748;8.102;2023-05-23T15:15:28;28.10;39.50
15574;DHT22;7888;46.748;8.102;2023-05-23T15:18:04;28.10;39.70
15574;DHT22;7888;46.748;8.102;2023-05-23T15:20:35;28.00;39.60
15574;DHT22;7888;46.748;8.102;2023-05-23T15:23:04;27.90;39.10
15574;DHT22;7888;46.748;8.102;2023-05-23T15:25:31;27.90;39.50
15574;DHT22;7888;46.748;8.102;2023-05-23T15:27:57;27.80;39.80
15574;DHT22;7888;46.748;8.102;2023-05-23T15:30:23;27.70;40.00
15574;DHT22;7888;46.748;8.102;2023-05-23T15:32:48;27.60;40.20
15574;DHT22;7888;46.748;8.102;2023-05-23T15:35:14;27.60;40.50
15574;DHT22;7888;46.748;8.102;2023-05-23T15:37:40;27.50;40.60
15574;DHT22;7888;46.748;8.102;2023-05-23T15:40:07;27.40;40.50
15574;DHT22;7888;46.748;8.102;2023-05-23T15:42:34;27.30;40.70
15574;DHT22;7888;46.748;8.102;2023-05-23T15:45:01;27.20;40.90
15574;DHT22;7888;46.748;8.102;2023-05-23T15:47:27;27.10;41.00
15574;DHT22;7888;46.748;8.102;2023-05-23T15:49:52;26.90;40.60
15574;DHT22;7888;46.748;8.102;2023-05-23T15:52:18;26.90;41.00
15574;DHT22;7888;46.748;8.102;2023-05-23T15:54:44;26.80;42.00
15574;DHT22;7888;46.748;8.102;2023-05-23T15:57:10;26.70;42.10
15574;DHT22;7888;46.748;8.102;2023-05-23T15:59:36;26.60;42.30
15574;DHT22;7888;46.748;8.102;2023-05-23T16:02:04;26.50;42.80
15574;DHT22;7888;46.748;8.102;2023-05-23T16:04:31;26.40;42.10
15574;DHT22;7888;46.748;8.102;2023-05-23T16:06:57;26.30;41.90
15574;DHT22;7888;46.748;8.102;2023-05-23T16:09:23;26.20;42.60
15574;DHT22;7888;46.748;8.102;2023-05-23T16:11:49;26.10;41.60
15574;DHT22;7888;46.748;8.102;2023-05-23T16:14:14;26.00;42.10